createdAt,value
2022-07-31T00:02:08.040Z,26.67
2022-07-31T00:04:34.589Z,26.18
2022-07-31T00:07:01.423Z,26.53
2022-07-31T00:09:52.541Z,26.22
2022-07-31T00:12:38.420Z,26.29
2022-07-31T00:15:06.983Z,25.93
2022-07-31T00:17:34.030Z,26.08
2022-07-31T00:20:00.470Z,26.18
2022-07-31T00:22:26.867Z,26.00
2022-07-31T00:24:53.333Z,26.31
2022-07-31T00:27:19.783Z,26.00
2022-07-31T00:29:46.497Z,26.24
2022-07-31T00:32:13.061Z,26.39
2022-07-31T00:34:39.508Z,26.13
2022-07-31T00:37:06.332Z,25.99
2022-07-31T00:39:33.121Z,26.14
2022-07-31T00:41:59.634Z,25.71
2022-07-31T00:44:26.193Z,25.85
2022-07-31T00:46:52.691Z,26.16
2022-07-31T00:49:19.937Z,25.17
2022-07-31T00:51:46.466Z,25.47
2022-07-31T00:54:16.281Z,26.02
2022-07-31T00:56:50.048Z,26.02
2022-07-31T00:59:16.811Z,25.63
2022-07-31T01:01:51.146Z,25.28
2022-07-31T01:04:19.713Z,25.61
2022-07-31T01:06:47.531Z,26.15
2022-07-31T01:09:17.338Z,25.83
2022-07-31T01:11:50.585Z,26.07
2022-07-31T01:14:20.226Z,25.59
2022-07-31T01:16:49.238Z,25.52
2022-07-31T01:19:37.903Z,26.01
2022-07-31T01:22:43.967Z,25.91
2022-07-31T01:25:10.338Z,25.87
2022-07-31T01:27:56.288Z,25.77
2022-07-31T01:30:30.466Z,25.19
2022-07-31T01:33:02.338Z,25.68
2022-07-31T01:35:35.058Z,25.30
2022-07-31T01:38:13.104Z,25.56
2022-07-31T01:40:46.553Z,25.09
2022-07-31T01:43:19.046Z,25.41
2022-07-31T01:45:48.007Z,25.32
2022-07-31T01:48:17.147Z,26.04
2022-07-31T01:50:47.154Z,25.84
2022-07-31T01:53:20.156Z,25.39
2022-07-31T01:56:00.896Z,25.87
2022-07-31T01:58:34.813Z,25.84
2022-07-31T02:01:03.644Z,25.19
2022-07-31T02:03:43.420Z,25.25
2022-07-31T02:06:13.400Z,25.39
2022-07-31T02:08:40.504Z,25.37
2022-07-31T02:11:08.539Z,25.28
2022-07-31T02:13:37.353Z,25.33
2022-07-31T02:16:05.578Z,25.40
2022-07-31T02:18:34.074Z,25.34
2022-07-31T02:21:00.640Z,25.24
2022-07-31T02:23:27.075Z,25.10
2022-07-31T02:25:54.473Z,25.40
2022-07-31T02:28:22.184Z,24.84
2022-07-31T02:30:49.771Z,24.95
2022-07-31T02:33:23.113Z,25.36
2022-07-31T02:35:51.558Z,25.66
2022-07-31T02:38:23.395Z,25.52
2022-07-31T02:40:53.210Z,25.52
2022-07-31T02:43:21.093Z,24.96
2022-07-31T02:45:48.366Z,24.87
2022-07-31T02:48:15.407Z,24.89
2022-07-31T02:50:42.970Z,24.85
2022-07-31T02:53:09.756Z,24.75
2022-07-31T02:55:36.871Z,25.22
2022-07-31T02:58:06.175Z,24.37
2022-07-31T03:00:32.982Z,24.74
2022-07-31T03:02:59.415Z,25.10
2022-07-31T03:05:25.912Z,24.62
2022-07-31T03:07:52.585Z,25.07
2022-07-31T03:10:19.098Z,24.41
2022-07-31T03:12:52.670Z,23.89
2022-07-31T03:15:22.331Z,24.27
2022-07-31T03:17:49.926Z,24.48
2022-07-31T03:20:17.124Z,24.20
2022-07-31T03:22:44.330Z,24.19
2022-07-31T03:25:11.482Z,24.07
2022-07-31T03:27:52.501Z,23.79
2022-07-31T03:30:26.393Z,23.95
2022-07-31T03:32:54.272Z,24.11
2022-07-31T03:35:21.124Z,24.19
2022-07-31T03:37:47.560Z,23.90
2022-07-31T03:40:14.097Z,24.30
2022-07-31T03:42:41.858Z,24.08
2022-07-31T03:45:10.814Z,23.80
2022-07-31T03:47:37.736Z,23.97
2022-07-31T03:50:04.725Z,23.52
2022-07-31T03:52:31.457Z,24.31
2022-07-31T03:54:57.915Z,23.96
2022-07-31T03:57:30.249Z,23.81
2022-07-31T04:00:02.334Z,24.40
2022-07-31T04:02:29.755Z,23.68
2022-07-31T04:04:57.307Z,23.90
2022-07-31T04:07:24.495Z,24.30
2022-07-31T04:09:51.438Z,24.41
2022-07-31T04:12:17.921Z,23.80
2022-07-31T04:14:44.620Z,23.89
2022-07-31T04:17:12.111Z,24.38
2022-07-31T04:19:39.273Z,23.91
2022-07-31T04:22:06.854Z,24.42
2022-07-31T04:24:34.047Z,23.82
2022-07-31T04:27:00.743Z,23.79
2022-07-31T04:29:29.825Z,23.54
2022-07-31T04:31:57.182Z,24.03
2022-07-31T04:34:23.646Z,23.90
2022-07-31T04:36:50.193Z,24.48
2022-07-31T04:39:16.828Z,24.47
2022-07-31T04:41:43.283Z,24.00
2022-07-31T04:44:10.447Z,24.41
2022-07-31T04:46:37.153Z,24.01
2022-07-31T04:49:03.755Z,23.78
2022-07-31T04:51:30.339Z,24.16
2022-07-31T04:53:56.767Z,24.14
2022-07-31T04:56:42.087Z,23.94
2022-07-31T04:59:16.277Z,24.26
2022-07-31T05:01:43.804Z,24.83
2022-07-31T05:04:10.974Z,24.31
2022-07-31T05:06:43.617Z,24.82
2022-07-31T05:09:18.695Z,24.20
2022-07-31T05:11:47.226Z,24.66
2022-07-31T05:14:15.354Z,24.65
2022-07-31T05:16:42.216Z,24.04
2022-07-31T05:19:13.818Z,24.33
2022-07-31T05:21:47.119Z,24.35
2022-07-31T05:24:33.093Z,24.94
2022-07-31T05:27:01.490Z,24.35
2022-07-31T05:29:27.974Z,23.78
2022-07-31T05:31:59.407Z,24.30
2022-07-31T05:34:29.205Z,24.65
2022-07-31T05:36:56.728Z,24.28
2022-07-31T05:39:25.055Z,23.79
2022-07-31T05:41:52.695Z,23.79
2022-07-31T05:44:19.109Z,23.94
2022-07-31T05:46:45.591Z,23.60
2022-07-31T05:49:12.090Z,23.62
2022-07-31T05:51:38.595Z,23.76
2022-07-31T05:54:05.076Z,23.60
2022-07-31T05:56:31.504Z,23.76
2022-07-31T05:58:58.008Z,23.70
2022-07-31T06:01:24.459Z,23.49
2022-07-31T06:03:51.914Z,23.54
2022-07-31T06:06:19.294Z,23.62
2022-07-31T06:08:45.739Z,23.70
2022-07-31T06:11:12.191Z,23.39
2022-07-31T06:13:38.857Z,23.38
2022-07-31T06:16:11.978Z,23.94
2022-07-31T06:18:38.486Z,23.67
2022-07-31T06:21:04.908Z,23.78
2022-07-31T06:23:32.412Z,24.20
2022-07-31T06:25:59.199Z,23.61
2022-07-31T06:28:47.476Z,23.82
2022-07-31T06:31:19.939Z,24.18
2022-07-31T06:33:48.469Z,24.20
2022-07-31T06:36:15.735Z,24.09
2022-07-31T06:38:42.172Z,23.58
2022-07-31T06:41:08.603Z,23.38
2022-07-31T06:43:35.045Z,23.56
2022-07-31T06:46:01.519Z,23.44
2022-07-31T06:48:28.399Z,23.07
2022-07-31T06:51:14.470Z,23.87
2022-07-31T06:53:41.489Z,23.75
2022-07-31T06:56:07.924Z,23.72
2022-07-31T06:58:34.437Z,23.91
2022-07-31T07:01:00.975Z,23.57
2022-07-31T07:03:27.414Z,23.23
2022-07-31T07:05:53.851Z,23.47
2022-07-31T07:08:20.249Z,23.68
2022-07-31T07:10:46.902Z,23.15
2022-07-31T07:13:13.324Z,23.27
2022-07-31T07:15:39.742Z,23.61
2022-07-31T07:18:06.938Z,23.64
2022-07-31T07:20:33.580Z,23.77
2022-07-31T07:23:00.125Z,23.65
2022-07-31T07:25:26.553Z,23.94
2022-07-31T07:27:53.738Z,24.23
2022-07-31T07:30:20.334Z,24.68
2022-07-31T07:32:46.743Z,23.98
2022-07-31T07:35:13.484Z,24.17
2022-07-31T07:37:40.902Z,24.13
2022-07-31T07:40:08.746Z,24.58
2022-07-31T07:42:35.503Z,24.02
2022-07-31T07:45:02.811Z,24.39
2022-07-31T07:48:05.770Z,24.00
2022-07-31T07:50:19.582Z,23.93
2022-07-31T07:52:46.200Z,24.20
2022-07-31T07:55:12.739Z,24.82
2022-07-31T07:57:40.171Z,24.74
2022-07-31T08:00:09.566Z,24.20
2022-07-31T08:02:36.449Z,24.33
2022-07-31T08:05:03.063Z,24.79
2022-07-31T08:07:42.176Z,24.48
2022-07-31T08:10:10.285Z,24.86
2022-07-31T08:12:37.184Z,24.71
2022-07-31T08:15:05.527Z,24.87
2022-07-31T08:17:31.951Z,24.14
2022-07-31T08:19:58.373Z,24.86
2022-07-31T08:22:24.836Z,24.78
2022-07-31T08:24:51.388Z,25.32
2022-07-31T08:27:24.022Z,25.07
2022-07-31T08:30:07.079Z,25.05
2022-07-31T08:32:33.593Z,24.98
2022-07-31T08:35:00.119Z,24.81
2022-07-31T08:38:02.710Z,25.33
2022-07-31T08:40:13.142Z,25.39
2022-07-31T08:42:39.650Z,24.81
2022-07-31T08:45:08.099Z,25.76
2022-07-31T08:47:36.137Z,25.61
2022-07-31T08:50:05.532Z,25.38
2022-07-31T08:52:34.703Z,25.83
2022-07-31T08:55:06.870Z,25.48
2022-07-31T08:57:34.219Z,26.18
2022-07-31T09:00:00.628Z,25.63
2022-07-31T09:02:27.102Z,25.69
2022-07-31T09:04:54.618Z,25.59
2022-07-31T09:07:21.026Z,26.01
2022-07-31T09:09:51.148Z,26.15
2022-07-31T09:12:38.990Z,26.00
2022-07-31T09:15:19.729Z,25.60
2022-07-31T09:17:53.894Z,25.48
2022-07-31T09:20:33.103Z,25.86
2022-07-31T09:23:08.054Z,25.73
2022-07-31T09:25:34.827Z,25.99
2022-07-31T09:28:06.444Z,26.19
2022-07-31T09:30:34.159Z,26.08
2022-07-31T09:33:19.040Z,26.55
2022-07-31T09:35:52.730Z,26.35
2022-07-31T09:38:20.559Z,26.03
2022-07-31T09:40:55.167Z,26.09
2022-07-31T09:43:31.806Z,26.38
2022-07-31T09:45:59.933Z,26.42
2022-07-31T09:48:28.812Z,26.62
2022-07-31T09:51:04.606Z,26.41
2022-07-31T09:53:53.496Z,26.93
2022-07-31T09:56:35.994Z,26.98
2022-07-31T09:59:03.173Z,26.63
2022-07-31T10:01:30.920Z,26.74
2022-07-31T10:04:00.567Z,26.97
2022-07-31T10:06:31.617Z,27.20
2022-07-31T10:08:59.942Z,27.37
2022-07-31T10:11:27.915Z,27.23
2022-07-31T10:13:57.035Z,27.86
2022-07-31T10:16:27.369Z,27.35
2022-07-31T10:18:59.521Z,27.87
2022-07-31T10:21:32.221Z,27.89
2022-07-31T10:24:00.663Z,27.95
2022-07-31T10:26:50.746Z,27.48
2022-07-31T10:29:17.562Z,27.68
2022-07-31T10:31:46.233Z,27.82
2022-07-31T10:34:15.545Z,27.88
2022-07-31T10:36:44.997Z,27.90
2022-07-31T10:39:49.279Z,28.04
2022-07-31T10:42:19.629Z,27.75
2022-07-31T10:44:55.418Z,27.73
2022-07-31T10:47:22.151Z,27.69
2022-07-31T10:49:49.741Z,27.42
2022-07-31T10:52:37.168Z,27.86
2022-07-31T10:55:27.274Z,27.40
2022-07-31T10:57:57.163Z,28.06
2022-07-31T11:00:28.353Z,27.88
2022-07-31T11:02:56.979Z,27.97
2022-07-31T11:05:24.548Z,27.81
2022-07-31T11:08:05.430Z,27.85
2022-07-31T11:10:34.120Z,28.04
2022-07-31T11:13:08.869Z,28.14
2022-07-31T11:15:37.407Z,28.10
2022-07-31T11:18:24.888Z,28.59
2022-07-31T11:21:13.326Z,28.33
2022-07-31T11:23:56.093Z,28.50
2022-07-31T11:26:32.805Z,28.60
2022-07-31T11:30:00.452Z,28.64
2022-07-31T11:31:58.633Z,28.59
2022-07-31T11:34:26.019Z,28.58
2022-07-31T11:36:52.536Z,28.39
2022-07-31T11:39:19.014Z,28.45
2022-07-31T11:41:52.563Z,28.18
2022-07-31T11:44:22.173Z,28.44
2022-07-31T11:46:51.195Z,27.97
2022-07-31T11:49:47.959Z,28.62
2022-07-31T11:52:30.799Z,28.58
2022-07-31T11:55:10.027Z,28.78
2022-07-31T11:57:52.423Z,28.53
2022-07-31T12:00:29.250Z,28.19
2022-07-31T12:02:57.658Z,28.50
2022-07-31T12:05:38.845Z,28.10
2022-07-31T12:08:07.737Z,28.83
2022-07-31T12:10:34.876Z,28.87
2022-07-31T12:13:02.347Z,28.84
2022-07-31T12:15:28.811Z,28.60
2022-07-31T12:18:08.108Z,28.61
2022-07-31T12:20:36.506Z,28.99
2022-07-31T12:23:05.690Z,28.98
2022-07-31T12:25:43.227Z,29.19
2022-07-31T12:28:10.148Z,29.08
2022-07-31T12:30:36.849Z,29.35
2022-07-31T12:33:08.041Z,29.59
2022-07-31T12:35:55.655Z,29.17
2022-07-31T12:38:40.760Z,29.56
2022-07-31T12:41:08.150Z,29.71
2022-07-31T12:43:37.631Z,29.28
2022-07-31T12:46:06.857Z,29.24
2022-07-31T12:48:38.593Z,29.08
2022-07-31T12:51:06.725Z,28.86
2022-07-31T12:53:33.218Z,28.87
2022-07-31T12:55:59.593Z,29.05
2022-07-31T12:58:26.028Z,28.86
2022-07-31T13:00:54.696Z,29.06
2022-07-31T13:03:21.398Z,29.12
2022-07-31T13:05:51.752Z,28.92
2022-07-31T13:08:18.652Z,28.84
2022-07-31T13:10:46.098Z,29.18
2022-07-31T13:13:12.617Z,29.23
2022-07-31T13:15:39.201Z,29.73
2022-07-31T13:18:05.792Z,29.72
2022-07-31T13:20:32.824Z,29.26
2022-07-31T13:22:59.592Z,30.04
2022-07-31T13:25:28.357Z,29.77
2022-07-31T13:27:54.771Z,30.03
2022-07-31T13:30:21.179Z,29.15
2022-07-31T13:32:47.611Z,29.35
2022-07-31T13:35:25.970Z,29.58
2022-07-31T13:37:55.217Z,29.44
2022-07-31T13:40:40.413Z,29.31
2022-07-31T13:43:06.877Z,29.28
2022-07-31T13:45:33.264Z,29.16
2022-07-31T13:48:00.989Z,28.94
2022-07-31T13:50:28.836Z,29.08
2022-07-31T13:52:57.648Z,29.19
2022-07-31T13:55:25.443Z,29.46
2022-07-31T13:57:52.375Z,29.80
2022-07-31T14:00:21.986Z,30.04
2022-07-31T14:02:49.964Z,29.61
2022-07-31T14:05:16.635Z,29.80
2022-07-31T14:07:48.212Z,29.68
2022-07-31T14:10:20.575Z,29.65
2022-07-31T14:12:47.988Z,29.60
2022-07-31T14:15:14.570Z,29.72
2022-07-31T14:17:41.035Z,29.58
2022-07-31T14:20:08.122Z,29.45
2022-07-31T14:22:34.769Z,29.70
2022-07-31T14:25:01.198Z,29.89
2022-07-31T14:27:27.677Z,29.35
2022-07-31T14:29:54.162Z,29.58
2022-07-31T14:32:22.012Z,29.28
2022-07-31T14:34:51.608Z,29.54
2022-07-31T14:37:18.475Z,29.73
2022-07-31T14:39:44.976Z,29.56
2022-07-31T14:42:12.337Z,29.88
2022-07-31T14:44:41.867Z,30.21
2022-07-31T14:47:10.404Z,30.29
2022-07-31T14:50:08.996Z,30.25
2022-07-31T14:52:23.846Z,29.99
2022-07-31T14:54:50.398Z,30.01
2022-07-31T14:57:20.129Z,29.87
2022-07-31T14:59:49.897Z,29.74
2022-07-31T15:02:21.450Z,29.72
2022-07-31T15:04:48.892Z,29.76
2022-07-31T15:07:34.346Z,29.61
2022-07-31T15:10:04.120Z,29.74
2022-07-31T15:12:30.628Z,29.96
2022-07-31T15:14:57.074Z,30.17
2022-07-31T15:17:23.676Z,30.42
2022-07-31T15:19:50.374Z,30.38
2022-07-31T15:22:19.710Z,30.12
2022-07-31T15:24:49.629Z,30.27
2022-07-31T15:27:21.549Z,30.49
2022-07-31T15:30:00.440Z,30.76
2022-07-31T15:32:33.746Z,30.74
2022-07-31T15:35:00.247Z,30.78
2022-07-31T15:37:26.705Z,30.77
2022-07-31T15:40:02.824Z,30.01
2022-07-31T15:42:32.017Z,29.85
2022-07-31T15:44:58.822Z,30.04
2022-07-31T15:47:25.421Z,30.07
2022-07-31T15:49:51.821Z,29.94
2022-07-31T15:52:19.288Z,30.20
2022-07-31T15:54:46.702Z,30.05
2022-07-31T15:57:13.474Z,29.70
2022-07-31T15:59:39.997Z,29.59
2022-07-31T16:02:07.213Z,29.53
2022-07-31T16:04:34.851Z,29.51
2022-07-31T16:08:29.871Z,29.33
2022-07-31T16:10:14.857Z,29.41
2022-07-31T16:12:35.404Z,29.41
2022-07-31T16:15:02.452Z,29.30
2022-07-31T16:17:37.742Z,29.23
2022-07-31T16:20:07.058Z,29.70
2022-07-31T16:22:33.716Z,29.48
2022-07-31T16:25:00.107Z,29.47
2022-07-31T16:27:26.657Z,29.16
2022-07-31T16:29:59.404Z,29.17
2022-07-31T16:32:28.604Z,29.40
2022-07-31T16:34:58.476Z,29.42
2022-07-31T16:37:50.252Z,29.27
2022-07-31T16:40:28.682Z,28.83
2022-07-31T16:43:02.020Z,29.37
2022-07-31T16:45:29.645Z,28.72
2022-07-31T16:47:56.875Z,28.62
2022-07-31T16:50:23.754Z,28.71
2022-07-31T16:52:54.562Z,29.08
2022-07-31T16:55:51.669Z,29.22
2022-07-31T16:58:11.484Z,29.37
2022-07-31T17:00:39.271Z,29.40
2022-07-31T17:03:06.005Z,29.01
2022-07-31T17:05:32.467Z,28.95
2022-07-31T17:07:59.031Z,28.83
2022-07-31T17:10:26.188Z,28.60
2022-07-31T17:12:53.616Z,28.63
2022-07-31T17:15:20.688Z,28.84
2022-07-31T17:17:47.390Z,28.30
2022-07-31T17:20:14.981Z,28.47
2022-07-31T17:22:41.562Z,28.02
2022-07-31T17:25:09.830Z,28.86
2022-07-31T17:27:36.325Z,28.50
2022-07-31T17:30:03.476Z,29.06
2022-07-31T17:32:32.060Z,28.59
2022-07-31T17:34:58.460Z,28.47
2022-07-31T17:37:25.144Z,28.80
2022-07-31T17:39:55.169Z,28.47
2022-07-31T17:42:25.208Z,28.75
2022-07-31T17:44:55.263Z,28.66
2022-07-31T17:47:25.448Z,28.80
2022-07-31T17:49:52.905Z,28.89
2022-07-31T17:52:20.866Z,28.79
2022-07-31T17:54:47.928Z,28.70
2022-07-31T17:57:14.624Z,28.67
2022-07-31T17:59:43.292Z,28.60
2022-07-31T18:02:10.444Z,28.61
2022-07-31T18:04:37.632Z,28.34
2022-07-31T18:07:05.900Z,28.62
2022-07-31T18:09:33.089Z,28.62
2022-07-31T18:11:59.924Z,28.30
2022-07-31T18:14:26.497Z,28.05
2022-07-31T18:16:53.535Z,28.35
2022-07-31T18:19:21.772Z,28.36
2022-07-31T18:21:48.812Z,28.04
2022-07-31T18:24:15.282Z,28.05
2022-07-31T18:26:41.747Z,28.06
2022-07-31T18:29:08.259Z,28.27
2022-07-31T18:31:35.961Z,28.11
2022-07-31T18:34:04.823Z,27.93
2022-07-31T18:36:32.566Z,27.99
2022-07-31T18:38:59.027Z,28.02
2022-07-31T18:41:25.502Z,28.23
2022-07-31T18:43:52.045Z,28.03
2022-07-31T18:46:19.918Z,27.83
2022-07-31T18:48:46.471Z,27.46
2022-07-31T18:51:13.018Z,27.78
2022-07-31T18:53:39.469Z,27.33
2022-07-31T18:56:05.940Z,27.19
2022-07-31T18:58:32.388Z,27.49
2022-07-31T19:00:58.868Z,27.46
2022-07-31T19:03:26.264Z,27.25
2022-07-31T19:05:53.616Z,27.74
2022-07-31T19:08:20.452Z,27.79
2022-07-31T19:10:49.116Z,27.10
2022-07-31T19:13:19.065Z,27.40
2022-07-31T19:15:51.545Z,26.94
2022-07-31T19:18:20.408Z,26.79
2022-07-31T19:21:00.295Z,26.80
2022-07-31T19:23:41.558Z,26.62
2022-07-31T19:26:09.968Z,26.44
2022-07-31T19:28:36.701Z,25.99
2022-07-31T19:31:03.561Z,26.03
2022-07-31T19:33:30.117Z,26.06
2022-07-31T19:36:02.023Z,25.84
2022-07-31T19:38:33.058Z,25.88
2022-07-31T19:41:00.091Z,26.08
2022-07-31T19:43:26.800Z,25.79
2022-07-31T19:45:58.804Z,25.87
2022-07-31T19:48:39.575Z,25.69
2022-07-31T19:51:06.341Z,25.99
2022-07-31T19:53:32.759Z,25.82
2022-07-31T19:56:01.505Z,25.68
2022-07-31T19:58:27.929Z,25.82
2022-07-31T20:00:54.344Z,25.95
2022-07-31T20:03:20.837Z,25.95
2022-07-31T20:05:47.292Z,25.94
2022-07-31T20:08:13.686Z,25.97
2022-07-31T20:10:40.105Z,25.88
2022-07-31T20:13:06.491Z,25.92
2022-07-31T20:15:51.204Z,25.79
2022-07-31T20:18:27.404Z,25.82
2022-07-31T20:20:56.915Z,25.82
2022-07-31T20:23:23.782Z,25.85
2022-07-31T20:25:50.237Z,25.83
2022-07-31T20:28:16.850Z,25.98
2022-07-31T20:30:43.253Z,25.81
2022-07-31T20:33:11.140Z,25.90
2022-07-31T20:35:47.769Z,25.78
2022-07-31T20:38:16.651Z,25.90
2022-07-31T20:40:48.021Z,25.85
2022-07-31T20:43:21.055Z,25.72
2022-07-31T20:45:48.186Z,25.37
2022-07-31T20:48:17.575Z,25.06
2022-07-31T20:50:44.062Z,24.90
2022-07-31T20:53:14.615Z,25.05
2022-07-31T20:55:41.046Z,24.95
2022-07-31T20:58:07.473Z,24.91
2022-07-31T21:00:37.991Z,24.50
2022-07-31T21:03:05.819Z,24.88
2022-07-31T21:05:32.468Z,24.68
2022-07-31T21:07:58.998Z,24.84
2022-07-31T21:10:29.539Z,24.89
2022-07-31T21:12:56.716Z,24.96
2022-07-31T21:15:31.189Z,24.94
2022-07-31T21:18:11.283Z,24.78
2022-07-31T21:20:50.016Z,24.88
2022-07-31T21:23:23.822Z,24.88
2022-07-31T21:25:52.461Z,25.11
2022-07-31T21:28:19.388Z,24.90
2022-07-31T21:30:46.197Z,24.98
2022-07-31T21:33:12.687Z,25.16
2022-07-31T21:35:40.159Z,24.97
2022-07-31T21:38:12.154Z,25.27
2022-07-31T21:40:39.881Z,25.08
2022-07-31T21:43:06.715Z,24.99
2022-07-31T21:45:50.670Z,25.19
2022-07-31T21:48:22.287Z,25.16
2022-07-31T21:50:49.059Z,25.31
2022-07-31T21:53:15.694Z,25.16
2022-07-31T21:55:42.372Z,25.09
2022-07-31T21:58:09.268Z,25.02
2022-07-31T22:00:35.959Z,25.00
2022-07-31T22:03:02.894Z,24.85
2022-07-31T22:05:48.988Z,24.97
2022-07-31T22:08:16.333Z,24.86
2022-07-31T22:10:42.994Z,24.98
2022-07-31T22:13:09.641Z,25.22
2022-07-31T22:15:58.906Z,25.10
2022-07-31T22:18:22.819Z,24.98
2022-07-31T22:20:53.129Z,25.02
2022-07-31T22:23:19.804Z,25.12
2022-07-31T22:25:48.810Z,25.16
2022-07-31T22:28:18.680Z,25.06
2022-07-31T22:30:45.635Z,24.81
2022-07-31T22:33:12.279Z,24.98
2022-07-31T22:35:40.540Z,24.89
2022-07-31T22:38:07.805Z,24.99
2022-07-31T22:40:34.358Z,24.94
2022-07-31T22:43:02.581Z,25.04
2022-07-31T22:45:30.006Z,24.87
2022-07-31T22:47:57.402Z,24.79
2022-07-31T22:50:23.970Z,24.85
2022-07-31T22:52:50.395Z,24.92
2022-07-31T22:55:16.885Z,24.79
2022-07-31T22:57:46.264Z,24.97
2022-07-31T23:00:14.618Z,24.93
2022-07-31T23:02:42.149Z,24.85
2022-07-31T23:05:09.241Z,24.67
2022-07-31T23:07:35.773Z,24.88
2022-07-31T23:10:02.405Z,24.70
2022-07-31T23:12:29.481Z,24.31
2022-07-31T23:14:56.067Z,24.30
2022-07-31T23:17:23.522Z,24.46
2022-07-31T23:19:53.739Z,24.47
2022-07-31T23:22:33.190Z,24.44
2022-07-31T23:25:01.950Z,24.55
2022-07-31T23:27:28.515Z,24.48
2022-07-31T23:29:55.027Z,23.98
2022-07-31T23:32:21.528Z,23.92
2022-07-31T23:34:48.008Z,24.11
2022-07-31T23:37:14.519Z,24.11
2022-07-31T23:39:41.106Z,24.01
2022-07-31T23:42:26.174Z,24.05
2022-07-31T23:44:52.583Z,24.22
2022-07-31T23:47:19.168Z,24.02
2022-07-31T23:49:46.562Z,24.13
2022-07-31T23:52:12.990Z,23.99
2022-07-31T23:54:39.572Z,24.16
2022-07-31T23:57:06.027Z,24.13
2022-07-31T23:59:32.410Z,24.04
